Time;durP1;ratioP1;P1;durP2;ratioP2;P2;SDS_P1;SDS_P2;PMS_P1;PMS_P2;Temp;Humidity;BMP_temperature;BMP_pressure;BME280_temperature;BME280_humidity;BME280_pressure;Samples;Min_cycle;Max_cycle;Signal;HPM_P1;HPM_P2
2022/12/29 00:00:31;;;;;;;0.73;0.50;;;11.80;99.90;;;;;;4140318;28;20048;-71
2022/12/29 00:02:31;;;;;;;1.05;0.77;;;11.70;99.90;;;;;;4142022;28;20085;-71
2022/12/29 00:04:32;;;;;;;1.52;0.70;;;11.70;99.90;;;;;;4142848;28;20113;-71
2022/12/29 00:06:33;;;;;;;1.00;0.90;;;11.70;99.90;;;;;;4142076;28;20053;-71
2022/12/29 00:08:39;;;;;;;0.60;0.57;;;11.70;99.90;;;;;;4141424;28;20030;-72
2022/12/29 00:10:40;;;;;;;0.88;0.52;;;11.60;99.90;;;;;;4137560;28;20045;-72
2022/12/29 00:17:19;;;;;;;0.50;0.50;;;11.60;99.90;;;;;;4140290;28;20030;-70
2022/12/29 00:35:07;;;;;;;0.93;0.40;;;11.60;99.90;;;;;;4140798;28;20057;-73
2022/12/29 00:35:55;;;;;;;0.52;0.50;;;11.50;99.90;;;;;;4140928;28;20038;-71
2022/12/29 00:44:04;;;;;;;0.47;0.47;;;11.50;99.90;;;;;;4138035;28;20052;-72
2022/12/29 00:45:03;;;;;;;0.43;0.40;;;11.50;99.90;;;;;;4136299;28;20041;-72
2022/12/29 00:47:04;;;;;;;1.67;0.50;;;11.50;99.90;;;;;;4132768;28;20046;-71
2022/12/29 00:51:25;;;;;;;1.23;0.70;;;11.50;99.90;;;;;;4136415;28;20477;-72
2022/12/29 00:53:26;;;;;;;0.82;0.40;;;11.50;99.90;;;;;;4140680;28;20072;-72
2022/12/29 00:55:26;;;;;;;0.50;0.40;;;11.40;99.90;;;;;;4141546;28;20430;-72
2022/12/29 00:57:27;;;;;;;0.30;0.30;;;11.40;99.90;;;;;;4139469;28;20486;-71
2022/12/29 00:59:27;;;;;;;0.47;0.40;;;11.50;99.90;;;;;;4142001;28;20338;-72
2022/12/29 01:01:28;;;;;;;0.55;0.32;;;11.40;99.90;;;;;;4139515;28;20033;-72
2022/12/29 01:03:28;;;;;;;0.77;0.30;;;11.40;99.90;;;;;;4141648;28;20026;-72
2022/12/29 01:05:29;;;;;;;1.02;0.65;;;11.40;99.90;;;;;;4137095;28;20610;-72
2022/12/29 01:07:29;;;;;;;0.70;0.32;;;11.40;99.90;;;;;;4142061;28;20129;-72
2022/12/29 01:11:51;;;;;;;0.50;0.40;;;11.40;99.90;;;;;;4138214;28;20041;-71
2022/12/29 01:13:52;;;;;;;0.50;0.30;;;11.40;99.90;;;;;;4141409;28;20049;-72
2022/12/29 01:15:53;;;;;;;0.60;0.40;;;11.40;99.90;;;;;;4140091;28;20424;-72
2022/12/29 01:17:54;;;;;;;0.40;0.30;;;11.50;99.90;;;;;;4141478;28;20045;-72
2022/12/29 01:19:55;;;;;;;0.63;0.45;;;11.40;99.90;;;;;;4137147;28;20045;-73
2022/12/29 01:21:56;;;;;;;0.40;0.40;;;11.50;99.90;;;;;;4139865;28;20034;-72
2022/12/29 01:23:56;;;;;;;1.10;0.40;;;11.50;99.90;;;;;;4140737;28;20045;-73
2022/12/29 01:25:57;;;;;;;0.73;0.47;;;11.50;99.90;;;;;;4142670;28;20038;-72
2022/12/29 01:27:58;;;;;;;0.50;0.50;;;11.50;99.90;;;;;;4141126;28;20044;-73
2022/12/29 01:29:58;;;;;;;0.82;0.25;;;11.60;99.90;;;;;;4143694;28;20057;-72
2022/12/29 01:31:59;;;;;;;0.57;0.40;;;11.60;99.90;;;;;;4140802;28;20033;-72
2022/12/29 01:33:59;;;;;;;2.70;0.50;;;11.60;99.90;;;;;;4145011;28;20064;-72
2022/12/29 01:36:01;;;;;;;1.58;0.45;;;11.60;99.90;;;;;;4144457;28;20037;-72
2022/12/29 01:38:02;;;;;;;0.63;0.40;;;11.70;99.90;;;;;;4144293;28;20104;-72
2022/12/29 01:40:03;;;;;;;0.40;0.40;;;11.70;99.90;;;;;;4139871;28;20678;-70
2022/12/29 01:42:04;;;;;;;0.30;0.30;;;11.70;99.90;;;;;;4140087;28;20573;-71
2022/12/29 01:44:48;;;;;;;1.50;0.50;;;11.70;99.90;;;;;;4142615;28;20034;-72
2022/12/29 01:46:50;;;;;;;0.70;0.30;;;11.70;99.90;;;;;;4137015;28;20088;-72
2022/12/29 01:49:07;;;;;;;0.52;0.32;;;11.80;99.90;;;;;;4144506;28;20105;-70
2022/12/29 01:51:08;;;;;;;1.55;0.50;;;11.80;99.90;;;;;;4138651;28;20460;-72
2022/12/29 01:53:13;;;;;;;0.50;0.40;;;11.80;99.90;;;;;;4144156;28;20030;-72
2022/12/29 01:55:14;;;;;;;0.57;0.43;;;11.80;99.90;;;;;;4144083;28;20026;-73
2022/12/29 01:57:21;;;;;;;0.57;0.40;;;11.80;99.90;;;;;;4144517;28;20138;-72
2022/12/29 01:59:31;;;;;;;1.10;0.40;;;11.90;99.90;;;;;;4144853;28;20025;-72
2022/12/29 02:01:32;;;;;;;0.73;0.40;;;11.90;99.90;;;;;;4141637;28;20054;-72
2022/12/29 02:03:34;;;;;;;4.40;0.55;;;11.90;99.90;;;;;;4143152;28;20141;-68
2022/12/29 02:05:49;;;;;;;0.32;0.30;;;11.90;99.90;;;;;;4140861;28;20045;-70
2022/12/29 02:07:51;;;;;;;1.08;0.52;;;11.90;99.90;;;;;;4144651;28;20493;-72
2022/12/29 02:09:54;;;;;;;1.48;0.50;;;12.00;99.90;;;;;;4143866;28;20437;-72
2022/12/29 02:11:56;;;;;;;2.03;0.50;;;11.90;99.90;;;;;;4138191;28;20122;-71
2022/12/29 02:13:57;;;;;;;0.60;0.50;;;11.90;99.90;;;;;;4143664;28;20038;-72
2022/12/29 02:16:16;;;;;;;0.68;0.43;;;12.00;99.90;;;;;;4142341;28;20088;-72
2022/12/29 02:18:45;;;;;;;0.77;0.60;;;12.00;99.90;;;;;;4143211;28;20447;-72
2022/12/29 02:21:23;;;;;;;2.28;0.98;;;12.00;99.90;;;;;;4142175;28;21427;-72
2022/12/29 02:23:29;;;;;;;2.08;0.70;;;12.00;99.90;;;;;;4133978;28;20089;-71
2022/12/29 02:25:36;;;;;;;2.38;0.55;;;12.00;99.90;;;;;;4138255;28;20066;-72
2022/12/29 02:27:51;;;;;;;1.67;0.50;;;12.00;99.90;;;;;;4143032;28;20109;-72
2022/12/29 02:30:06;;;;;;;0.98;0.68;;;12.00;99.90;;;;;;4140054;28;20124;-71
2022/12/29 02:32:23;;;;;;;4.05;0.60;;;12.00;99.90;;;;;;4141191;28;20180;-72
2022/12/29 02:35:09;;;;;;;1.40;0.70;;;12.00;99.90;;;;;;4139848;28;20026;-72
2022/12/29 02:37:15;;;;;;;1.45;0.65;;;12.00;99.90;;;;;;4129543;28;20504;-72
2022/12/29 02:39:44;;;;;;;1.30;0.68;;;12.00;99.90;;;;;;4141805;28;20460;-72
2022/12/29 02:42:03;;;;;;;0.93;0.50;;;12.00;99.90;;;;;;4136340;28;20516;-72
2022/12/29 02:44:35;;;;;;;1.75;0.65;;;12.00;99.90;;;;;;4138740;28;20042;-72
2022/12/29 02:46:51;;;;;;;1.70;0.47;;;12.10;99.90;;;;;;4137243;28;20057;-72
2022/12/29 02:49:06;;;;;;;1.08;0.60;;;12.10;99.90;;;;;;4139105;28;20537;-72
2022/12/29 02:51:13;;;;;;;2.13;0.95;;;12.10;99.90;;;;;;4137868;28;20037;-72
2022/12/29 02:54:40;;;;;;;1.27;0.50;;;12.00;99.90;;;;;;4141886;28;20037;-72
2022/12/29 02:55:41;;;;;;;1.80;0.77;;;12.00;99.90;;;;;;4133948;28;20121;-71
2022/12/29 02:57:41;;;;;;;;;;;12.00;99.90;;;;;;4136669;28;20058;-72
2022/12/29 02:59:45;;;;;;;2.10;0.68;;;12.00;99.90;;;;;;4139770;28;19940;-72
2022/12/29 03:02:26;;;;;;;1.85;0.57;;;12.00;99.90;;;;;;4138185;28;20042;-71
2022/12/29 03:04:39;;;;;;;3.92;1.00;;;12.00;99.90;;;;;;4117281;28;20038;-72
2022/12/29 03:06:51;;;;;;;;;;;12.00;99.90;;;;;;4137516;28;20065;-71
2022/12/29 03:09:00;;;;;;;1.13;0.68;;;12.00;99.90;;;;;;4140376;28;19960;-72
2022/12/29 03:12:07;;;;;;;4.75;0.95;;;12.00;99.90;;;;;;4134707;28;20394;-72
2022/12/29 03:16:02;;;;;;;2.63;0.70;;;12.00;99.90;;;;;;4140576;28;20473;-72
2022/12/29 03:18:23;;;;;;;;;;;12.00;99.90;;;;;;4142499;28;20071;-72
2022/12/29 03:20:41;;;;;;;1.70;0.77;;;12.00;99.90;;;;;;4137192;28;19936;-72
2022/12/29 03:22:44;;;;;;;3.15;0.90;;;12.00;99.90;;;;;;4137334;28;20034;-71
2022/12/29 03:24:50;;;;;;;1.75;0.75;;;12.00;99.90;;;;;;4139626;28;20040;-71
2022/12/29 03:26:54;;;;;;;2.50;1.00;;;12.00;99.90;;;;;;4138970;28;20060;-72
2022/12/29 03:28:57;;;;;;;2.00;0.70;;;12.00;99.90;;;;;;4138828;28;20030;-72
2022/12/29 03:30:59;;;;;;;1.80;0.85;;;12.00;99.90;;;;;;4133068;28;20463;-71
2022/12/29 03:33:03;;;;;;;0.88;0.50;;;12.00;99.90;;;;;;4139201;28;20041;-72
2022/12/29 03:35:05;;;;;;;1.55;0.63;;;12.00;99.90;;;;;;4139323;28;20571;-72
2022/12/29 03:37:20;;;;;;;2.13;0.60;;;12.00;99.90;;;;;;4140926;28;20103;-71
2022/12/29 03:39:23;;;;;;;1.20;0.80;;;12.00;99.90;;;;;;4142835;28;20038;-72
2022/12/29 03:41:28;;;;;;;0.75;0.50;;;12.00;99.90;;;;;;4139366;28;22267;-71
2022/12/29 03:43:29;;;;;;;2.08;0.85;;;12.00;99.90;;;;;;4140967;28;20481;-71
2022/12/29 03:45:30;;;;;;;1.60;0.70;;;12.00;99.90;;;;;;4140083;28;20061;-72
2022/12/29 03:47:30;;;;;;;1.00;0.65;;;12.00;99.90;;;;;;4141967;28;20038;-71
2022/12/29 03:49:31;;;;;;;1.40;0.63;;;12.00;99.90;;;;;;4140843;28;20444;-71
2022/12/29 03:51:32;;;;;;;0.60;0.50;;;11.90;99.90;;;;;;4140166;28;20076;-71
2022/12/29 03:53:32;;;;;;;2.50;0.60;;;11.90;99.90;;;;;;4141952;28;20033;-71
2022/12/29 03:55:33;;;;;;;1.90;0.70;;;11.90;99.90;;;;;;4141431;28;20042;-71
2022/12/29 03:57:34;;;;;;;5.28;0.70;;;11.80;99.90;;;;;;4142526;28;20397;-71
2022/12/29 03:59:34;;;;;;;1.38;0.52;;;11.90;99.90;;;;;;4135074;28;20137;-69
2022/12/29 04:01:35;;;;;;;0.50;0.40;;;11.90;99.90;;;;;;4137042;28;20034;-71
2022/12/29 04:03:35;;;;;;;9.48;0.80;;;11.90;99.90;;;;;;4138670;28;20026;-70
2022/12/29 04:05:36;;;;;;;0.90;0.70;;;11.80;99.90;;;;;;4140722;28;20493;-72
2022/12/29 04:07:36;;;;;;;1.67;0.50;;;11.80;99.90;;;;;;4140254;28;20741;-72
2022/12/29 04:09:37;;;;;;;1.35;0.55;;;11.80;99.90;;;;;;4140897;28;20043;-72
2022/12/29 04:11:37;;;;;;;3.42;0.70;;;11.70;99.90;;;;;;4140744;28;20138;-71
2022/12/29 04:13:40;;;;;;;0.80;0.43;;;11.80;99.90;;;;;;4140243;28;20144;-71
2022/12/29 04:15:42;;;;;;;;;;;11.70;99.90;;;;;;4140404;28;20133;-72
2022/12/29 04:17:42;;;;;;;0.85;0.50;;;11.70;99.90;;;;;;4141834;28;19940;-72
2022/12/29 04:19:43;;;;;;;1.80;0.40;;;11.70;99.90;;;;;;4142572;28;20038;-72
2022/12/29 04:21:44;;;;;;;3.17;0.80;;;11.70;99.90;;;;;;4139802;28;20053;-72
2022/12/29 04:23:44;;;;;;;0.90;0.45;;;11.60;99.90;;;;;;4139228;28;20535;-72
2022/12/29 04:25:47;;;;;;;0.82;0.50;;;11.70;99.90;;;;;;4138989;28;20533;-72
2022/12/29 04:27:47;;;;;;;0.70;0.25;;;11.60;99.90;;;;;;4138411;28;20034;-72
2022/12/29 04:29:48;;;;;;;0.57;0.30;;;11.60;99.90;;;;;;4137875;28;20041;-72
2022/12/29 04:31:48;;;;;;;1.30;0.43;;;11.70;99.90;;;;;;4139019;28;20034;-72
2022/12/29 04:33:49;;;;;;;1.98;0.65;;;11.70;99.90;;;;;;4141560;28;20030;-73
2022/12/29 04:35:50;;;;;;;3.05;0.75;;;11.70;99.90;;;;;;4139344;28;20046;-71
2022/12/29 04:37:50;;;;;;;3.38;0.90;;;11.70;99.90;;;;;;4143255;28;20029;-71
2022/12/29 04:39:51;;;;;;;1.42;0.70;;;11.80;99.90;;;;;;4142029;28;20036;-71
2022/12/29 04:41:51;;;;;;;2.58;0.85;;;11.70;99.90;;;;;;4138322;28;20030;-71
2022/12/29 04:43:52;;;;;;;1.38;0.50;;;11.60;99.90;;;;;;4141819;28;20064;-71
2022/12/29 04:45:52;;;;;;;8.48;1.20;;;11.50;99.90;;;;;;4136575;28;20461;-71
2022/12/29 04:47:53;;;;;;;1.23;0.40;;;11.40;99.90;;;;;;4135051;28;20077;-70
2022/12/29 04:49:53;;;;;;;2.65;0.50;;;11.30;99.90;;;;;;4140580;28;20034;-70
2022/12/29 04:51:54;;;;;;;2.53;0.40;;;11.20;99.90;;;;;;4139181;28;20479;-70
2022/12/29 04:53:54;;;;;;;1.98;0.50;;;11.10;99.90;;;;;;4138373;28;20411;-70
2022/12/29 04:55:55;;;;;;;4.22;0.63;;;11.00;99.90;;;;;;4141753;28;20111;-71
2022/12/29 04:57:56;;;;;;;1.67;0.55;;;11.00;99.90;;;;;;4142272;28;20022;-71
2022/12/29 04:59:56;;;;;;;0.47;0.30;;;10.90;99.90;;;;;;4139185;28;20069;-72
2022/12/29 05:01:57;;;;;;;1.45;0.50;;;10.90;99.90;;;;;;4140572;28;20034;-72
2022/12/29 05:03:57;;;;;;;2.13;0.50;;;10.80;99.90;;;;;;4138026;28;20060;-71
2022/12/29 05:05:58;;;;;;;0.82;0.28;;;10.80;99.90;;;;;;4140094;28;20066;-72
2022/12/29 05:07:58;;;;;;;1.42;0.50;;;10.70;99.90;;;;;;4144469;28;20045;-71
2022/12/29 05:09:59;;;;;;;3.10;0.40;;;10.70;99.90;;;;;;4141713;28;20029;-71
2022/12/29 05:12:00;;;;;;;2.78;0.75;;;10.70;99.90;;;;;;4140134;28;20390;-72
2022/12/29 05:14:00;;;;;;;3.50;0.60;;;10.80;99.90;;;;;;4144239;28;20129;-72
2022/12/29 05:16:01;;;;;;;0.95;0.35;;;10.70;99.90;;;;;;4142864;28;20046;-71
2022/12/29 05:18:02;;;;;;;0.80;0.50;;;10.70;99.90;;;;;;4143275;28;20492;-72
2022/12/29 05:20:04;;;;;;;1.02;0.25;;;10.70;99.90;;;;;;4147699;28;20117;-72
2022/12/29 05:22:05;;;;;;;;;;;10.70;99.90;;;;;;4139720;28;20075;-72
2022/12/29 05:24:06;;;;;;;0.60;0.20;;;10.70;99.90;;;;;;4141287;28;20311;-70
2022/12/29 05:26:06;;;;;;;2.28;0.70;;;10.70;99.90;;;;;;4144288;28;20073;-71
2022/12/29 05:28:07;;;;;;;2.17;0.50;;;10.80;99.90;;;;;;4140667;28;20434;-71
2022/12/29 05:30:08;;;;;;;2.42;0.50;;;10.80;99.90;;;;;;4131192;28;20035;-72
2022/12/29 05:32:09;;;;;;;3.33;0.55;;;10.70;99.90;;;;;;4140752;28;20038;-71
2022/12/29 05:34:13;;;;;;;1.27;0.60;;;10.70;99.90;;;;;;4138896;28;20042;-72
2022/12/29 05:36:13;;;;;;;1.33;0.57;;;10.80;99.90;;;;;;4147833;28;20038;-72
2022/12/29 05:38:14;;;;;;;3.15;0.52;;;10.80;99.90;;;;;;4144875;28;20113;-72
2022/12/29 05:40:14;;;;;;;2.40;1.00;;;10.80;99.90;;;;;;4143404;28;20061;-72
2022/12/29 05:42:15;;;;;;;1.58;0.80;;;10.90;99.90;;;;;;4143079;28;20049;-72
2022/12/29 05:44:16;;;;;;;3.10;0.75;;;10.90;99.90;;;;;;4145118;28;20034;-72
2022/12/29 05:46:16;;;;;;;3.88;0.90;;;10.90;99.90;;;;;;4142778;28;20037;-73
2022/12/29 05:48:17;;;;;;;4.78;1.27;;;10.90;99.90;;;;;;4144233;28;20133;-72
2022/12/29 05:50:17;;;;;;;2.25;0.55;;;10.90;99.90;;;;;;4136544;28;20236;-72
2022/12/29 05:52:18;;;;;;;5.32;0.90;;;10.90;99.90;;;;;;4144200;28;20084;-72
2022/12/29 05:54:18;;;;;;;5.38;1.10;;;10.90;99.90;;;;;;4149575;28;20436;-72
2022/12/29 05:56:19;;;;;;;3.40;0.63;;;10.90;99.90;;;;;;4133412;28;20445;-72
2022/12/29 05:58:20;;;;;;;2.67;0.63;;;11.00;99.90;;;;;;4135545;28;20392;-72
2022/12/29 06:00:20;;;;;;;2.10;0.52;;;10.90;99.90;;;;;;4145787;28;20037;-73
2022/12/29 06:02:21;;;;;;;2.75;0.75;;;11.00;99.90;;;;;;4138452;28;20029;-72
2022/12/29 06:04:21;;;;;;;3.40;0.75;;;11.00;99.90;;;;;;4150063;28;20463;-72
2022/12/29 06:06:22;;;;;;;4.40;0.70;;;11.00;99.90;;;;;;4135247;28;20038;-72
2022/12/29 06:08:22;;;;;;;2.47;0.90;;;11.00;99.90;;;;;;4128290;28;20041;-72
2022/12/29 06:10:23;;;;;;;1.70;0.55;;;11.00;99.90;;;;;;4136476;28;20045;-72
2022/12/29 06:12:24;;;;;;;2.13;0.60;;;11.00;99.90;;;;;;4138851;28;20539;-70
2022/12/29 06:14:24;;;;;;;6.60;0.65;;;11.00;99.90;;;;;;4128936;28;20035;-71
2022/12/29 06:16:25;;;;;;;1.77;0.73;;;11.00;99.90;;;;;;4135653;28;20042;-71
2022/12/29 06:18:25;;;;;;;1.08;0.47;;;11.10;99.90;;;;;;4131632;28;20473;-72
2022/12/29 06:20:26;;;;;;;1.85;0.50;;;11.10;99.90;;;;;;4147601;28;20034;-71
2022/12/29 06:22:26;;;;;;;3.00;0.68;;;11.10;99.90;;;;;;4139892;28;21221;-72
2022/12/29 06:24:27;;;;;;;3.53;0.90;;;11.10;99.90;;;;;;4142314;28;20033;-71
2022/12/29 06:26:28;;;;;;;1.70;0.50;;;11.10;99.90;;;;;;4132503;28;20477;-72
2022/12/29 06:28:28;;;;;;;1.08;0.40;;;11.10;99.90;;;;;;4130705;28;20045;-71
2022/12/29 06:30:29;;;;;;;3.42;0.65;;;11.10;99.90;;;;;;4142517;28;20039;-71
2022/12/29 06:32:30;;;;;;;1.13;0.60;;;11.20;99.90;;;;;;4134823;28;20076;-73
2022/12/29 06:34:30;;;;;;;3.70;0.80;;;11.20;99.90;;;;;;4143628;28;20109;-72
2022/12/29 06:36:31;;;;;;;3.25;0.82;;;11.20;99.90;;;;;;4129387;28;20040;-72
2022/12/29 06:38:31;;;;;;;3.08;1.00;;;11.20;99.90;;;;;;4138731;28;20038;-72
2022/12/29 06:40:32;;;;;;;4.28;0.73;;;11.20;99.90;;;;;;4136820;28;20038;-72
2022/12/29 06:42:32;;;;;;;3.42;1.00;;;11.20;99.90;;;;;;4141819;28;20405;-71
2022/12/29 06:44:33;;;;;;;2.17;0.60;;;11.20;99.90;;;;;;4135673;28;20037;-72
2022/12/29 06:46:33;;;;;;;3.53;0.70;;;11.30;99.90;;;;;;4140591;28;20493;-73
2022/12/29 06:48:34;;;;;;;3.05;0.90;;;11.20;99.90;;;;;;4145300;28;20069;-72
2022/12/29 06:50:35;;;;;;;1.67;0.52;;;11.30;99.90;;;;;;4144402;28;20041;-72
2022/12/29 06:52:35;;;;;;;3.25;0.90;;;11.30;99.90;;;;;;4119672;28;20041;-72
2022/12/29 06:54:36;;;;;;;2.95;0.80;;;11.30;99.90;;;;;;4142203;28;20033;-72
2022/12/29 06:56:36;;;;;;;2.40;0.70;;;11.30;99.90;;;;;;4154206;28;20030;-73
2022/12/29 06:58:37;;;;;;;5.03;1.00;;;11.30;99.90;;;;;;4145730;28;20044;-69
2022/12/29 07:00:38;;;;;;;3.40;0.80;;;11.30;99.90;;;;;;4143275;28;20041;-71
2022/12/29 07:02:38;;;;;;;3.38;0.95;;;11.30;99.90;;;;;;4142234;28;20045;-71
2022/12/29 07:04:39;;;;;;;1.27;0.50;;;11.30;99.90;;;;;;4145338;28;20034;-71
2022/12/29 07:06:40;;;;;;;4.30;0.60;;;11.30;99.90;;;;;;4152135;28;20044;-71
2022/12/29 07:08:41;;;;;;;7.00;0.77;;;11.30;99.90;;;;;;4143129;28;20045;-72
2022/12/29 07:10:41;;;;;;;5.75;1.08;;;11.30;99.90;;;;;;4141718;28;20033;-72
2022/12/29 07:12:42;;;;;;;3.38;0.80;;;11.30;99.90;;;;;;4140505;28;20050;-71
2022/12/29 07:14:42;;;;;;;2.15;0.85;;;11.30;99.90;;;;;;4134155;28;20053;-72
2022/12/29 07:16:43;;;;;;;6.72;1.20;;;11.30;99.90;;;;;;4145088;28;20041;-72
2022/12/29 07:18:43;;;;;;;3.60;1.02;;;11.30;99.90;;;;;;4143567;28;20034;-72
2022/12/29 07:20:44;;;;;;;3.10;0.88;;;11.30;99.90;;;;;;4139026;28;20037;-72
2022/12/29 07:22:46;;;;;;;4.63;1.02;;;11.30;99.90;;;;;;4139148;28;20097;-72
2022/12/29 07:24:47;;;;;;;6.47;1.10;;;11.30;99.90;;;;;;4144792;28;20096;-73
2022/12/29 07:26:48;;;;;;;2.13;0.73;;;11.30;99.90;;;;;;4142788;28;20045;-72
2022/12/29 07:28:48;;;;;;;4.05;0.70;;;11.20;99.90;;;;;;4142525;28;20029;-72
2022/12/29 07:30:49;;;;;;;4.00;0.90;;;11.20;99.90;;;;;;4138886;28;20042;-72
2022/12/29 07:32:49;;;;;;;4.88;1.05;;;11.20;99.90;;;;;;4144191;28;20443;-73
2022/12/29 07:34:50;;;;;;;3.67;0.88;;;11.20;99.90;;;;;;4141194;28;20041;-72
2022/12/29 07:36:50;;;;;;;3.70;1.05;;;11.30;99.90;;;;;;4142562;28;20030;-71
2022/12/29 07:38:51;;;;;;;4.47;1.27;;;11.30;99.90;;;;;;4144348;28;21096;-72
2022/12/29 07:40:56;;;;;;;7.85;1.55;;;11.30;99.90;;;;;;4151652;28;20496;-72
2022/12/29 07:42:57;;;;;;;5.68;1.10;;;11.30;99.90;;;;;;4142057;28;20572;-69
2022/12/29 07:44:57;;;;;;;5.30;1.23;;;11.30;99.90;;;;;;4143501;28;20042;-71
2022/12/29 07:46:58;;;;;;;5.32;1.25;;;11.30;99.90;;;;;;4142003;28;20042;-70
2022/12/29 07:48:59;;;;;;;5.80;1.20;;;11.30;99.90;;;;;;4143982;28;20026;-71
2022/12/29 07:50:59;;;;;;;2.67;1.08;;;11.30;99.90;;;;;;4142646;28;20547;-71
2022/12/29 07:53:01;;;;;;;6.70;1.10;;;11.30;99.90;;;;;;4143877;28;20033;-71
2022/12/29 07:55:01;;;;;;;3.85;1.10;;;11.30;99.90;;;;;;4144163;28;20022;-71
2022/12/29 07:57:02;;;;;;;5.25;1.42;;;11.30;99.90;;;;;;4142229;28;20034;-71
2022/12/29 07:59:03;;;;;;;7.30;1.60;;;11.30;99.90;;;;;;4144029;28;20480;-77
2022/12/29 08:01:05;;;;;;;6.30;1.40;;;11.30;99.90;;;;;;4138401;28;20042;-76
2022/12/29 08:03:05;;;;;;;6.00;1.33;;;11.30;99.90;;;;;;4145770;28;20374;-77
2022/12/29 08:05:06;;;;;;;7.47;1.67;;;11.30;99.90;;;;;;4145814;28;20029;-75
2022/12/29 08:07:07;;;;;;;6.80;1.55;;;11.30;99.90;;;;;;4140694;28;20436;-77
2022/12/29 08:09:08;;;;;;;6.10;1.38;;;11.30;99.90;;;;;;4141897;28;20033;-78
2022/12/29 08:11:08;;;;;;;6.60;1.38;;;11.30;99.90;;;;;;4142312;28;20030;-73
2022/12/29 08:13:09;;;;;;;6.22;1.10;;;11.30;99.90;;;;;;4142299;28;20133;-76
2022/12/29 08:15:11;;;;;;;3.35;1.00;;;11.30;99.90;;;;;;4142462;28;20038;-77
2022/12/29 08:17:12;;;;;;;6.38;1.38;;;11.30;99.90;;;;;;4141980;28;20384;-78
2022/12/29 08:19:13;;;;;;;5.55;1.33;;;11.30;99.90;;;;;;4142589;28;20037;-77
2022/12/29 08:21:13;;;;;;;5.72;1.30;;;11.30;99.90;;;;;;4139824;28;20488;-77
2022/12/29 08:23:14;;;;;;;3.97;1.15;;;11.30;99.90;;;;;;4137860;28;20385;-79
2022/12/29 08:25:14;;;;;;;6.10;1.45;;;11.30;99.90;;;;;;4144005;28;20106;-79
2022/12/29 08:27:15;;;;;;;6.05;1.40;;;11.30;99.90;;;;;;4136975;28;20026;-78
2022/12/29 08:29:16;;;;;;;4.07;1.20;;;11.30;99.90;;;;;;4141903;28;20066;-74
2022/12/29 08:31:17;;;;;;;4.78;1.23;;;11.30;99.90;;;;;;4138462;28;20028;-74
2022/12/29 08:33:17;;;;;;;6.10;1.23;;;11.30;99.90;;;;;;4139914;28;20040;-76
2022/12/29 08:35:18;;;;;;;4.57;1.30;;;11.30;99.90;;;;;;4132515;28;20031;-79
2022/12/29 08:37:19;;;;;;;4.82;1.42;;;11.30;99.90;;;;;;4136983;28;20064;-79
2022/12/29 08:39:19;;;;;;;8.98;1.60;;;11.20;99.90;;;;;;4144401;28;20034;-78
2022/12/29 08:41:20;;;;;;;7.30;1.40;;;11.20;99.90;;;;;;4140730;28;20068;-78
2022/12/29 08:43:21;;;;;;;7.25;1.42;;;11.30;99.90;;;;;;4139656;28;20033;-79
2022/12/29 08:45:21;;;;;;;7.10;1.48;;;11.20;99.90;;;;;;4140483;28;20117;-78
2022/12/29 08:47:22;;;;;;;4.95;1.30;;;11.20;99.90;;;;;;4137565;28;20567;-78
2022/12/29 08:49:22;;;;;;;6.43;1.58;;;11.20;99.90;;;;;;4141791;28;20037;-78
2022/12/29 08:51:23;;;;;;;7.13;1.45;;;11.30;99.90;;;;;;4140749;28;20029;-78
2022/12/29 08:53:23;;;;;;;6.10;1.42;;;11.20;99.90;;;;;;4145581;28;20530;-79
2022/12/29 08:55:24;;;;;;;5.35;1.55;;;11.30;99.90;;;;;;4143479;28;20122;-79
2022/12/29 08:57:25;;;;;;;5.15;1.15;;;11.30;99.90;;;;;;4141971;28;20481;-78
2022/12/29 08:59:25;;;;;;;7.03;1.42;;;11.30;99.90;;;;;;4143081;28;20370;-79
2022/12/29 09:01:26;;;;;;;4.05;1.27;;;11.40;99.90;;;;;;4140889;28;20029;-78
2022/12/29 09:03:27;;;;;;;5.45;1.50;;;11.40;99.90;;;;;;4146187;28;20036;-78
2022/12/29 09:05:27;;;;;;;9.50;1.88;;;11.40;99.90;;;;;;4142724;28;20044;-80
2022/12/29 09:07:28;;;;;;;4.90;1.48;;;11.40;99.90;;;;;;4143552;28;20516;-79
2022/12/29 09:09:28;;;;;;;6.65;1.50;;;11.40;99.90;;;;;;4141775;28;20938;-79
2022/12/29 09:11:29;;;;;;;8.48;1.40;;;11.40;99.90;;;;;;4142240;28;21362;-79
2022/12/29 09:13:29;;;;;;;6.22;1.23;;;11.40;99.90;;;;;;4144017;28;20125;-79
2022/12/29 09:15:30;;;;;;;5.90;1.30;;;11.50;99.90;;;;;;4142083;28;20362;-78
2022/12/29 09:17:46;;;;;;;4.47;1.60;;;11.50;99.90;;;;;;4139473;28;20432;-79
2022/12/29 09:19:46;;;;;;;5.22;1.52;;;11.40;99.90;;;;;;4138761;28;20077;-79
2022/12/29 09:21:47;;;;;;;7.90;1.88;;;11.40;99.90;;;;;;4142174;28;20026;-78
2022/12/29 09:23:48;;;;;;;5.75;1.58;;;11.40;99.90;;;;;;4138257;28;20023;-79
2022/12/29 09:25:48;;;;;;;4.57;1.30;;;11.40;99.90;;;;;;4143111;28;20490;-79
2022/12/29 09:27:50;;;;;;;9.25;2.00;;;11.40;99.90;;;;;;4143271;28;20507;-79
2022/12/29 09:29:50;;;;;;;5.95;1.63;;;11.40;99.90;;;;;;4138475;28;20120;-80
2022/12/29 09:31:51;;;;;;;6.63;1.63;;;11.40;99.90;;;;;;4138955;28;20034;-80
2022/12/29 09:33:51;;;;;;;9.77;1.92;;;11.40;99.90;;;;;;4143980;28;20042;-81
2022/12/29 09:35:55;;;;;;;6.10;1.58;;;11.40;99.90;;;;;;4142999;28;20432;-80
2022/12/29 09:37:55;;;;;;;8.95;1.85;;;11.40;99.90;;;;;;4143553;28;20034;-79
2022/12/29 09:39:56;;;;;;;7.68;1.70;;;11.40;99.90;;;;;;4142162;28;20041;-79
2022/12/29 09:42:22;;;;;;;4.57;1.67;;;11.40;99.90;;;;;;4142066;28;20117;-79
2022/12/29 09:44:42;;;;;;;7.90;1.63;;;11.40;99.90;;;;;;4140648;28;20359;-81
2022/12/29 09:46:47;;;;;;;9.77;2.20;;;11.40;99.90;;;;;;4140798;28;20042;-81
2022/12/29 09:48:55;;;;;;;5.75;1.52;;;11.50;99.90;;;;;;4145128;28;20033;-80
2022/12/29 09:51:00;;;;;;;5.13;1.50;;;11.50;99.90;;;;;;4143442;28;20068;-81
2022/12/29 09:53:16;;;;;;;7.68;1.80;;;11.50;99.90;;;;;;4144799;28;20034;-79
2022/12/29 09:55:21;;;;;;;7.88;1.70;;;11.50;99.90;;;;;;4141312;28;20132;-81
2022/12/29 09:57:26;;;;;;;5.40;1.17;;;11.50;99.90;;;;;;4145856;28;20030;-73
2022/12/29 09:59:40;;;;;;;5.95;1.70;;;11.50;99.90;;;;;;4145968;28;20113;-80
2022/12/29 10:01:57;;;;;;;4.53;1.38;;;11.60;99.90;;;;;;4142056;28;20460;-78
2022/12/29 10:03:59;;;;;;;10.52;1.88;;;11.60;99.90;;;;;;4142278;28;20440;-79
2022/12/29 10:06:15;;;;;;;5.43;1.65;;;11.60;99.90;;;;;;4137729;28;20037;-79
2022/12/29 10:08:21;;;;;;;9.55;1.67;;;11.60;99.90;;;;;;4137433;28;20385;-77
2022/12/29 10:10:42;;;;;;;6.80;1.15;;;11.60;99.90;;;;;;4139009;28;20045;-78
2022/12/29 10:13:10;;;;;;;8.98;1.58;;;11.60;99.90;;;;;;4140794;28;20412;-79
2022/12/29 10:15:46;;;;;;;5.63;1.67;;;11.70;99.90;;;;;;4129687;28;20038;-77
2022/12/29 10:18:24;;;;;;;4.25;1.38;;;11.70;99.90;;;;;;4140411;28;20073;-78
2022/12/29 10:20:33;;;;;;;6.88;1.40;;;11.70;99.90;;;;;;4136379;28;20038;-78
2022/12/29 10:22:39;;;;;;;3.60;1.25;;;11.70;99.90;;;;;;4142844;28;20038;-75
2022/12/29 10:24:41;;;;;;;6.22;1.40;;;11.70;99.90;;;;;;4147062;28;20389;-78
2022/12/29 10:26:43;;;;;;;8.33;2.10;;;11.70;99.90;;;;;;4143588;28;20773;-78
2022/12/29 10:28:44;;;;;;;;;;;11.70;99.90;;;;;;4146997;28;20653;-78
2022/12/29 10:30:47;;;;;;;9.52;1.95;;;11.70;99.90;;;;;;4142084;28;19957;-78
2022/12/29 10:32:58;;;;;;;6.20;1.63;;;11.70;99.90;;;;;;4144950;28;20488;-77
2022/12/29 10:35:04;;;;;;;4.75;1.42;;;11.70;99.90;;;;;;4145143;28;20400;-78
2022/12/29 10:37:29;;;;;;;6.88;1.80;;;11.70;99.90;;;;;;4143709;28;20045;-79
2022/12/29 10:39:36;;;;;;;6.30;1.60;;;11.70;99.90;;;;;;4145082;28;20107;-78
2022/12/29 10:41:48;;;;;;;7.38;1.88;;;11.70;99.90;;;;;;4141340;28;20477;-77
2022/12/29 10:43:54;;;;;;;3.58;1.55;;;11.70;99.90;;;;;;4144179;28;20499;-78
2022/12/29 10:46:00;;;;;;;7.45;1.80;;;11.70;99.90;;;;;;4139835;28;20059;-77
2022/12/29 10:48:08;;;;;;;6.35;1.65;;;11.70;99.90;;;;;;4147168;28;20041;-78
2022/12/29 10:50:12;;;;;;;11.77;2.00;;;11.70;99.90;;;;;;4144148;28;20034;-76
2022/12/29 10:52:16;;;;;;;10.60;1.90;;;11.60;99.90;;;;;;4140203;28;20068;-77
2022/12/29 10:54:19;;;;;;;7.50;1.42;;;11.60;99.90;;;;;;4137266;28;20157;-78
2022/12/29 10:56:35;;;;;;;8.63;1.90;;;11.60;99.90;;;;;;4136939;28;20596;-78
2022/12/29 10:58:36;;;;;;;9.32;1.98;;;11.60;99.90;;;;;;4135294;28;20120;-77
2022/12/29 11:00:37;;;;;;;9.20;1.95;;;11.60;99.90;;;;;;4140443;28;20499;-79
2022/12/29 11:02:52;;;;;;;9.23;1.98;;;11.60;99.90;;;;;;4144689;28;20038;-77
2022/12/29 11:05:07;;;;;;;8.25;1.92;;;11.60;99.90;;;;;;4138564;28;20038;-78
2022/12/29 11:07:08;;;;;;;5.35;1.58;;;11.60;99.90;;;;;;4137984;28;20117;-78
2022/12/29 11:09:16;;;;;;;9.48;1.90;;;11.60;99.90;;;;;;4138357;28;20493;-77
2022/12/29 11:11:27;;;;;;;7.35;1.38;;;11.60;99.90;;;;;;4141574;28;20026;-78
2022/12/29 11:13:30;;;;;;;8.77;1.77;;;11.70;99.90;;;;;;4139420;28;20050;-77
2022/12/29 11:15:48;;;;;;;5.20;1.67;;;11.80;99.90;;;;;;4134436;28;20050;-77
2022/12/29 11:17:50;;;;;;;10.13;1.75;;;11.80;99.90;;;;;;4134590;28;20049;-77